sensor_id;sensor_type;location;lat;lon;timestamp;P1;durP1;ratioP1;P2;durP2;ratioP2
23952;SDS011;12163;49.316;6.092;2023-05-07T00:00:59;7.40;;;2.50;;
23952;SDS011;12163;49.316;6.092;2023-05-07T00:03:25;6.72;;;2.55;;
23952;SDS011;12163;49.316;6.092;2023-05-07T00:05:53;8.30;;;2.40;;
23952;SDS011;12163;49.316;6.092;2023-05-07T00:08:19;4.03;;;2.10;;
23952;SDS011;12163;49.316;6.092;2023-05-07T00:10:46;5.53;;;2.35;;
23952;SDS011;12163;49.316;6.092;2023-05-07T00:13:13;6.10;;;2.17;;
23952;SDS011;12163;49.316;6.092;2023-05-07T00:15:40;5.25;;;2.20;;
23952;SDS011;12163;49.316;6.092;2023-05-07T00:18:06;4.63;;;2.28;;
23952;SDS011;12163;49.316;6.092;2023-05-07T00:20:33;5.50;;;2.55;;
23952;SDS011;12163;49.316;6.092;2023-05-07T00:23:01;6.85;;;2.00;;
23952;SDS011;12163;49.316;6.092;2023-05-07T00:25:28;3.80;;;2.28;;
23952;SDS011;12163;49.316;6.092;2023-05-07T00:27:54;3.80;;;2.13;;
23952;SDS011;12163;49.316;6.092;2023-05-07T00:30:21;5.50;;;2.35;;
23952;SDS011;12163;49.316;6.092;2023-05-07T00:32:47;3.50;;;2.17;;
23952;SDS011;12163;49.316;6.092;2023-05-07T00:35:15;4.47;;;2.17;;
23952;SDS011;12163;49.316;6.092;2023-05-07T00:37:41;5.68;;;2.22;;
23952;SDS011;12163;49.316;6.092;2023-05-07T00:40:08;4.70;;;2.05;;
23952;SDS011;12163;49.316;6.092;2023-05-07T00:42:35;4.45;;;2.20;;
23952;SDS011;12163;49.316;6.092;2023-05-07T00:45:03;5.57;;;2.08;;
23952;SDS011;12163;49.316;6.092;2023-05-07T00:47:30;6.38;;;2.22;;
23952;SDS011;12163;49.316;6.092;2023-05-07T00:49:57;7.32;;;2.17;;
23952;SDS011;12163;49.316;6.092;2023-05-07T00:52:25;2.88;;;1.88;;
23952;SDS011;12163;49.316;6.092;2023-05-07T00:54:52;3.35;;;2.10;;
23952;SDS011;12163;49.316;6.092;2023-05-07T00:57:20;5.07;;;2.42;;
23952;SDS011;12163;49.316;6.092;2023-05-07T00:59:48;4.45;;;2.10;;
23952;SDS011;12163;49.316;6.092;2023-05-07T01:02:16;6.20;;;2.40;;
23952;SDS011;12163;49.316;6.092;2023-05-07T01:04:43;4.30;;;2.17;;
23952;SDS011;12163;49.316;6.092;2023-05-07T01:07:10;3.08;;;2.00;;
23952;SDS011;12163;49.316;6.092;2023-05-07T01:09:37;4.30;;;1.98;;
23952;SDS011;12163;49.316;6.092;2023-05-07T01:12:04;6.35;;;2.13;;
23952;SDS011;12163;49.316;6.092;2023-05-07T01:14:32;6.57;;;2.00;;
23952;SDS011;12163;49.316;6.092;2023-05-07T01:16:59;4.35;;;2.13;;
23952;SDS011;12163;49.316;6.092;2023-05-07T01:19:26;3.92;;;2.25;;
23952;SDS011;12163;49.316;6.092;2023-05-07T01:21:56;4.13;;;2.65;;
23952;SDS011;12163;49.316;6.092;2023-05-07T01:24:30;4.35;;;2.03;;
23952;SDS011;12163;49.316;6.092;2023-05-07T01:26:57;4.20;;;1.90;;
23952;SDS011;12163;49.316;6.092;2023-05-07T01:29:24;4.57;;;2.20;;
23952;SDS011;12163;49.316;6.092;2023-05-07T01:31:51;6.28;;;2.30;;
23952;SDS011;12163;49.316;6.092;2023-05-07T01:34:18;8.05;;;2.13;;
23952;SDS011;12163;49.316;6.092;2023-05-07T01:36:48;5.10;;;2.17;;
23952;SDS011;12163;49.316;6.092;2023-05-07T01:39:15;7.63;;;2.45;;
23952;SDS011;12163;49.316;6.092;2023-05-07T01:41:42;5.25;;;2.25;;
23952;SDS011;12163;49.316;6.092;2023-05-07T01:44:09;3.90;;;2.17;;
23952;SDS011;12163;49.316;6.092;2023-05-07T01:46:38;3.83;;;2.33;;
23952;SDS011;12163;49.316;6.092;2023-05-07T01:49:05;4.88;;;2.20;;
23952;SDS011;12163;49.316;6.092;2023-05-07T01:51:32;4.63;;;2.45;;
23952;SDS011;12163;49.316;6.092;2023-05-07T01:53:59;3.67;;;2.10;;
23952;SDS011;12163;49.316;6.092;2023-05-07T01:56:26;3.50;;;1.90;;
23952;SDS011;12163;49.316;6.092;2023-05-07T01:58:53;4.80;;;2.38;;
23952;SDS011;12163;49.316;6.092;2023-05-07T02:01:19;6.38;;;2.15;;
23952;SDS011;12163;49.316;6.092;2023-05-07T02:03:47;5.43;;;2.10;;
23952;SDS011;12163;49.316;6.092;2023-05-07T02:06:13;5.47;;;2.15;;
23952;SDS011;12163;49.316;6.092;2023-05-07T02:08:40;6.18;;;2.20;;
23952;SDS011;12163;49.316;6.092;2023-05-07T02:11:07;4.88;;;2.42;;
23952;SDS011;12163;49.316;6.092;2023-05-07T02:13:33;4.43;;;1.90;;
23952;SDS011;12163;49.316;6.092;2023-05-07T02:16:03;4.45;;;2.10;;
23952;SDS011;12163;49.316;6.092;2023-05-07T02:18:30;3.25;;;2.10;;
23952;SDS011;12163;49.316;6.092;2023-05-07T02:20:58;4.88;;;2.47;;
23952;SDS011;12163;49.316;6.092;2023-05-07T02:23:24;4.63;;;2.22;;
23952;SDS011;12163;49.316;6.092;2023-05-07T02:25:51;3.88;;;2.30;;
23952;SDS011;12163;49.316;6.092;2023-05-07T02:28:17;3.47;;;2.42;;
23952;SDS011;12163;49.316;6.092;2023-05-07T02:30:44;5.18;;;2.28;;
23952;SDS011;12163;49.316;6.092;2023-05-07T02:33:11;5.18;;;2.30;;
23952;SDS011;12163;49.316;6.092;2023-05-07T02:35:40;4.88;;;2.30;;
23952;SDS011;12163;49.316;6.092;2023-05-07T02:38:06;8.98;;;2.88;;
23952;SDS011;12163;49.316;6.092;2023-05-07T02:40:33;3.15;;;2.22;;
23952;SDS011;12163;49.316;6.092;2023-05-07T02:42:59;6.65;;;2.25;;
23952;SDS011;12163;49.316;6.092;2023-05-07T02:45:26;5.70;;;2.75;;
23952;SDS011;12163;49.316;6.092;2023-05-07T02:47:53;6.30;;;2.85;;
23952;SDS011;12163;49.316;6.092;2023-05-07T02:50:19;5.40;;;2.42;;
23952;SDS011;12163;49.316;6.092;2023-05-07T02:52:46;6.35;;;2.50;;
23952;SDS011;12163;49.316;6.092;2023-05-07T02:55:13;5.90;;;2.33;;
23952;SDS011;12163;49.316;6.092;2023-05-07T02:57:40;5.00;;;2.85;;
23952;SDS011;12163;49.316;6.092;2023-05-07T03:00:13;5.00;;;2.30;;
23952;SDS011;12163;49.316;6.092;2023-05-07T03:02:41;4.25;;;2.38;;
23952;SDS011;12163;49.316;6.092;2023-05-07T03:05:08;5.05;;;2.80;;
23952;SDS011;12163;49.316;6.092;2023-05-07T03:07:35;3.47;;;2.25;;
23952;SDS011;12163;49.316;6.092;2023-05-07T03:10:03;7.50;;;2.10;;
23952;SDS011;12163;49.316;6.092;2023-05-07T03:12:30;5.75;;;2.53;;
23952;SDS011;12163;49.316;6.092;2023-05-07T03:14:57;5.03;;;2.65;;
23952;SDS011;12163;49.316;6.092;2023-05-07T03:17:23;8.27;;;2.50;;
23952;SDS011;12163;49.316;6.092;2023-05-07T03:19:50;6.07;;;2.47;;
23952;SDS011;12163;49.316;6.092;2023-05-07T03:22:17;4.47;;;2.65;;
23952;SDS011;12163;49.316;6.092;2023-05-07T03:24:43;8.93;;;2.40;;
23952;SDS011;12163;49.316;6.092;2023-05-07T03:27:10;9.68;;;2.90;;
23952;SDS011;12163;49.316;6.092;2023-05-07T03:29:37;6.88;;;2.60;;
23952;SDS011;12163;49.316;6.092;2023-05-07T03:32:03;5.97;;;2.60;;
23952;SDS011;12163;49.316;6.092;2023-05-07T03:34:30;7.40;;;2.80;;
23952;SDS011;12163;49.316;6.092;2023-05-07T03:36:57;4.97;;;2.80;;
23952;SDS011;12163;49.316;6.092;2023-05-07T03:39:23;7.03;;;3.05;;
23952;SDS011;12163;49.316;6.092;2023-05-07T03:41:50;6.65;;;2.80;;
23952;SDS011;12163;49.316;6.092;2023-05-07T03:44:17;7.15;;;3.15;;
23952;SDS011;12163;49.316;6.092;2023-05-07T03:46:43;7.63;;;2.80;;
23952;SDS011;12163;49.316;6.092;2023-05-07T03:49:10;4.32;;;2.22;;
23952;SDS011;12163;49.316;6.092;2023-05-07T03:51:36;4.85;;;2.72;;
23952;SDS011;12163;49.316;6.092;2023-05-07T03:54:03;5.30;;;2.58;;
23952;SDS011;12163;49.316;6.092;2023-05-07T03:56:30;6.22;;;2.63;;
23952;SDS011;12163;49.316;6.092;2023-05-07T03:58:57;4.50;;;2.58;;
23952;SDS011;12163;49.316;6.092;2023-05-07T04:01:24;10.80;;;2.60;;
23952;SDS011;12163;49.316;6.092;2023-05-07T04:03:50;5.70;;;2.72;;
23952;SDS011;12163;49.316;6.092;2023-05-07T04:06:17;6.28;;;2.85;;
23952;SDS011;12163;49.316;6.092;2023-05-07T04:08:44;7.00;;;3.00;;
23952;SDS011;12163;49.316;6.092;2023-05-07T04:11:10;4.85;;;2.80;;
23952;SDS011;12163;49.316;6.092;2023-05-07T04:13:37;4.78;;;2.45;;
23952;SDS011;12163;49.316;6.092;2023-05-07T04:16:04;6.65;;;2.70;;
23952;SDS011;12163;49.316;6.092;2023-05-07T04:18:31;4.05;;;2.83;;
23952;SDS011;12163;49.316;6.092;2023-05-07T04:20:58;5.43;;;2.92;;
23952;SDS011;12163;49.316;6.092;2023-05-07T04:23:25;5.20;;;2.85;;
23952;SDS011;12163;49.316;6.092;2023-05-07T04:25:51;4.10;;;2.38;;
23952;SDS011;12163;49.316;6.092;2023-05-07T04:28:18;5.88;;;2.40;;
23952;SDS011;12163;49.316;6.092;2023-05-07T04:30:44;6.78;;;2.42;;
23952;SDS011;12163;49.316;6.092;2023-05-07T04:33:11;5.65;;;2.78;;
23952;SDS011;12163;49.316;6.092;2023-05-07T04:35:40;7.40;;;2.72;;
23952;SDS011;12163;49.316;6.092;2023-05-07T04:38:06;8.25;;;2.70;;
23952;SDS011;12163;49.316;6.092;2023-05-07T04:40:35;4.85;;;2.63;;
23952;SDS011;12163;49.316;6.092;2023-05-07T04:43:02;6.72;;;2.80;;
23952;SDS011;12163;49.316;6.092;2023-05-07T04:45:28;4.95;;;2.60;;
23952;SDS011;12163;49.316;6.092;2023-05-07T04:47:55;5.43;;;2.30;;
23952;SDS011;12163;49.316;6.092;2023-05-07T04:50:22;4.88;;;1.90;;
23952;SDS011;12163;49.316;6.092;2023-05-07T04:52:50;4.03;;;2.00;;
23952;SDS011;12163;49.316;6.092;2023-05-07T04:55:17;6.25;;;2.20;;
23952;SDS011;12163;49.316;6.092;2023-05-07T04:57:43;3.53;;;2.00;;
23952;SDS011;12163;49.316;6.092;2023-05-07T05:00:10;3.55;;;1.70;;
23952;SDS011;12163;49.316;6.092;2023-05-07T05:02:40;4.90;;;2.20;;
23952;SDS011;12163;49.316;6.092;2023-05-07T05:05:07;12.27;;;2.13;;
23952;SDS011;12163;49.316;6.092;2023-05-07T05:07:34;3.10;;;1.80;;
23952;SDS011;12163;49.316;6.092;2023-05-07T05:10:01;5.68;;;2.10;;
23952;SDS011;12163;49.316;6.092;2023-05-07T05:12:29;3.03;;;2.13;;
23952;SDS011;12163;49.316;6.092;2023-05-07T05:14:56;5.28;;;2.35;;
23952;SDS011;12163;49.316;6.092;2023-05-07T05:17:23;4.88;;;1.90;;
23952;SDS011;12163;49.316;6.092;2023-05-07T05:19:50;9.15;;;2.10;;
23952;SDS011;12163;49.316;6.092;2023-05-07T05:22:17;4.25;;;2.22;;
23952;SDS011;12163;49.316;6.092;2023-05-07T05:24:43;7.35;;;2.15;;
23952;SDS011;12163;49.316;6.092;2023-05-07T05:27:10;5.20;;;2.20;;
23952;SDS011;12163;49.316;6.092;2023-05-07T05:29:36;5.80;;;2.30;;
23952;SDS011;12163;49.316;6.092;2023-05-07T05:32:03;4.90;;;2.40;;
23952;SDS011;12163;49.316;6.092;2023-05-07T05:34:30;4.32;;;2.47;;
23952;SDS011;12163;49.316;6.092;2023-05-07T05:36:56;9.55;;;2.40;;
23952;SDS011;12163;49.316;6.092;2023-05-07T05:39:25;5.00;;;2.22;;
23952;SDS011;12163;49.316;6.092;2023-05-07T05:41:52;4.82;;;2.58;;
23952;SDS011;12163;49.316;6.092;2023-05-07T05:44:18;5.40;;;2.67;;
23952;SDS011;12163;49.316;6.092;2023-05-07T05:46:45;5.38;;;2.63;;
23952;SDS011;12163;49.316;6.092;2023-05-07T05:49:12;9.82;;;3.20;;
23952;SDS011;12163;49.316;6.092;2023-05-07T05:51:39;3.97;;;2.55;;
23952;SDS011;12163;49.316;6.092;2023-05-07T05:54:05;8.52;;;2.97;;
23952;SDS011;12163;49.316;6.092;2023-05-07T05:56:32;4.65;;;2.65;;
23952;SDS011;12163;49.316;6.092;2023-05-07T05:58:59;5.43;;;2.42;;
23952;SDS011;12163;49.316;6.092;2023-05-07T06:01:25;5.35;;;2.53;;
23952;SDS011;12163;49.316;6.092;2023-05-07T06:03:52;4.68;;;2.20;;
23952;SDS011;12163;49.316;6.092;2023-05-07T06:06:19;5.43;;;2.60;;
23952;SDS011;12163;49.316;6.092;2023-05-07T06:08:45;5.25;;;2.60;;
23952;SDS011;12163;49.316;6.092;2023-05-07T06:11:12;4.38;;;2.53;;
23952;SDS011;12163;49.316;6.092;2023-05-07T06:13:39;4.20;;;2.50;;
23952;SDS011;12163;49.316;6.092;2023-05-07T06:16:05;4.00;;;2.25;;
23952;SDS011;12163;49.316;6.092;2023-05-07T06:18:33;7.43;;;2.83;;
23952;SDS011;12163;49.316;6.092;2023-05-07T06:21:02;6.75;;;2.65;;
23952;SDS011;12163;49.316;6.092;2023-05-07T06:23:28;6.47;;;2.60;;
23952;SDS011;12163;49.316;6.092;2023-05-07T06:25:55;4.20;;;2.47;;
23952;SDS011;12163;49.316;6.092;2023-05-07T06:28:22;6.18;;;2.80;;
23952;SDS011;12163;49.316;6.092;2023-05-07T06:30:48;5.15;;;2.60;;
23952;SDS011;12163;49.316;6.092;2023-05-07T06:33:16;4.93;;;2.75;;
23952;SDS011;12163;49.316;6.092;2023-05-07T06:35:42;9.63;;;2.55;;
23952;SDS011;12163;49.316;6.092;2023-05-07T06:38:09;6.60;;;2.65;;
23952;SDS011;12163;49.316;6.092;2023-05-07T06:40:36;9.40;;;2.45;;
23952;SDS011;12163;49.316;6.092;2023-05-07T06:43:03;6.43;;;2.40;;
23952;SDS011;12163;49.316;6.092;2023-05-07T06:45:29;4.97;;;2.50;;
23952;SDS011;12163;49.316;6.092;2023-05-07T06:47:56;6.03;;;2.92;;
23952;SDS011;12163;49.316;6.092;2023-05-07T06:50:23;8.88;;;2.55;;
23952;SDS011;12163;49.316;6.092;2023-05-07T06:52:49;5.30;;;2.25;;
23952;SDS011;12163;49.316;6.092;2023-05-07T06:55:16;3.90;;;2.55;;
23952;SDS011;12163;49.316;6.092;2023-05-07T06:57:42;6.10;;;2.83;;
23952;SDS011;12163;49.316;6.092;2023-05-07T07:00:09;6.03;;;2.70;;
23952;SDS011;12163;49.316;6.092;2023-05-07T07:02:37;3.60;;;2.47;;
23952;SDS011;12163;49.316;6.092;2023-05-07T07:05:03;3.63;;;2.50;;
23952;SDS011;12163;49.316;6.092;2023-05-07T07:07:30;4.03;;;2.53;;
23952;SDS011;12163;49.316;6.092;2023-05-07T07:09:57;4.03;;;2.40;;
23952;SDS011;12163;49.316;6.092;2023-05-07T07:12:24;4.80;;;2.45;;
23952;SDS011;12163;49.316;6.092;2023-05-07T07:14:52;4.85;;;2.50;;
23952;SDS011;12163;49.316;6.092;2023-05-07T07:17:20;7.10;;;2.55;;
23952;SDS011;12163;49.316;6.092;2023-05-07T07:19:47;6.72;;;2.25;;
23952;SDS011;12163;49.316;6.092;2023-05-07T07:22:13;5.95;;;2.88;;
23952;SDS011;12163;49.316;6.092;2023-05-07T07:24:40;7.32;;;2.80;;
23952;SDS011;12163;49.316;6.092;2023-05-07T07:27:06;5.90;;;2.80;;
23952;SDS011;12163;49.316;6.092;2023-05-07T07:29:33;6.22;;;2.40;;
23952;SDS011;12163;49.316;6.092;2023-05-07T07:31:59;6.25;;;2.80;;
23952;SDS011;12163;49.316;6.092;2023-05-07T07:34:26;4.13;;;2.60;;
23952;SDS011;12163;49.316;6.092;2023-05-07T07:36:53;4.38;;;2.33;;
23952;SDS011;12163;49.316;6.092;2023-05-07T07:39:19;4.40;;;2.20;;
23952;SDS011;12163;49.316;6.092;2023-05-07T07:41:46;3.30;;;2.40;;
23952;SDS011;12163;49.316;6.092;2023-05-07T07:44:13;4.88;;;2.40;;
23952;SDS011;12163;49.316;6.092;2023-05-07T07:46:41;4.68;;;2.25;;
23952;SDS011;12163;49.316;6.092;2023-05-07T07:49:08;7.40;;;2.40;;
23952;SDS011;12163;49.316;6.092;2023-05-07T07:51:35;7.13;;;2.50;;
23952;SDS011;12163;49.316;6.092;2023-05-07T07:54:01;9.13;;;2.80;;
23952;SDS011;12163;49.316;6.092;2023-05-07T07:56:29;2.53;;;2.30;;
23952;SDS011;12163;49.316;6.092;2023-05-07T07:58:55;4.25;;;2.22;;
23952;SDS011;12163;49.316;6.092;2023-05-07T08:01:22;4.82;;;1.92;;
23952;SDS011;12163;49.316;6.092;2023-05-07T08:03:49;4.72;;;2.22;;
23952;SDS011;12163;49.316;6.092;2023-05-07T08:06:15;9.55;;;2.85;;
23952;SDS011;12163;49.316;6.092;2023-05-07T08:08:42;6.68;;;2.80;;
23952;SDS011;12163;49.316;6.092;2023-05-07T08:11:09;5.07;;;2.45;;
23952;SDS011;12163;49.316;6.092;2023-05-07T08:13:36;7.55;;;2.47;;
23952;SDS011;12163;49.316;6.092;2023-05-07T08:16:04;7.53;;;2.42;;
23952;SDS011;12163;49.316;6.092;2023-05-07T08:18:31;7.90;;;2.60;;
23952;SDS011;12163;49.316;6.092;2023-05-07T08:20:57;5.13;;;2.40;;
23952;SDS011;12163;49.316;6.092;2023-05-07T08:23:24;9.00;;;3.28;;
23952;SDS011;12163;49.316;6.092;2023-05-07T08:25:50;4.35;;;2.63;;
23952;SDS011;12163;49.316;6.092;2023-05-07T08:28:18;7.72;;;3.13;;
23952;SDS011;12163;49.316;6.092;2023-05-07T08:30:46;8.95;;;2.75;;
23952;SDS011;12163;49.316;6.092;2023-05-07T08:33:13;5.93;;;2.30;;
23952;SDS011;12163;49.316;6.092;2023-05-07T08:35:39;5.00;;;2.80;;
23952;SDS011;12163;49.316;6.092;2023-05-07T08:38:06;8.30;;;3.20;;
23952;SDS011;12163;49.316;6.092;2023-05-07T08:40:34;7.00;;;3.00;;
23952;SDS011;12163;49.316;6.092;2023-05-07T08:43:05;7.00;;;3.00;;
23952;SDS011;12163;49.316;6.092;2023-05-07T08:45:32;7.20;;;3.20;;
23952;SDS011;12163;49.316;6.092;2023-05-07T08:48:02;5.50;;;2.53;;
23952;SDS011;12163;49.316;6.092;2023-05-07T08:50:31;5.07;;;2.67;;
23952;SDS011;12163;49.316;6.092;2023-05-07T08:53:02;5.82;;;3.47;;
23952;SDS011;12163;49.316;6.092;2023-05-07T08:55:29;8.75;;;3.10;;
23952;SDS011;12163;49.316;6.092;2023-05-07T08:57:56;8.30;;;3.55;;
23952;SDS011;12163;49.316;6.092;2023-05-07T09:00:23;6.57;;;3.45;;
23952;SDS011;12163;49.316;6.092;2023-05-07T09:02:49;6.22;;;3.13;;
23952;SDS011;12163;49.316;6.092;2023-05-07T09:05:16;7.32;;;3.17;;
23952;SDS011;12163;49.316;6.092;2023-05-07T09:07:43;5.82;;;3.20;;
23952;SDS011;12163;49.316;6.092;2023-05-07T09:10:10;6.60;;;2.95;;
23952;SDS011;12163;49.316;6.092;2023-05-07T09:12:37;7.93;;;3.15;;
23952;SDS011;12163;49.316;6.092;2023-05-07T09:15:05;7.53;;;3.42;;
23952;SDS011;12163;49.316;6.092;2023-05-07T09:17:32;6.25;;;3.08;;
23952;SDS011;12163;49.316;6.092;2023-05-07T09:20:03;6.88;;;3.30;;
23952;SDS011;12163;49.316;6.092;2023-05-07T09:22:32;8.07;;;3.45;;
23952;SDS011;12163;49.316;6.092;2023-05-07T09:24:59;8.75;;;4.00;;
23952;SDS011;12163;49.316;6.092;2023-05-07T09:27:26;9.60;;;6.20;;
23952;SDS011;12163;49.316;6.092;2023-05-07T09:29:53;9.02;;;4.40;;
23952;SDS011;12163;49.316;6.092;2023-05-07T09:32:19;7.85;;;3.83;;
23952;SDS011;12163;49.316;6.092;2023-05-07T09:34:46;7.15;;;3.97;;
23952;SDS011;12163;49.316;6.092;2023-05-07T09:37:13;8.23;;;4.80;;
23952;SDS011;12163;49.316;6.092;2023-05-07T09:39:43;9.63;;;4.72;;
23952;SDS011;12163;49.316;6.092;2023-05-07T09:42:11;7.57;;;4.13;;
23952;SDS011;12163;49.316;6.092;2023-05-07T09:44:38;11.80;;;3.45;;
23952;SDS011;12163;49.316;6.092;2023-05-07T09:47:05;6.88;;;3.95;;
23952;SDS011;12163;49.316;6.092;2023-05-07T09:49:36;13.65;;;5.57;;
23952;SDS011;12163;49.316;6.092;2023-05-07T09:52:05;7.75;;;4.20;;
23952;SDS011;12163;49.316;6.092;2023-05-07T09:54:35;9.18;;;4.20;;
23952;SDS011;12163;49.316;6.092;2023-05-07T09:57:04;6.60;;;3.53;;
23952;SDS011;12163;49.316;6.092;2023-05-07T09:59:33;6.97;;;4.25;;
23952;SDS011;12163;49.316;6.092;2023-05-07T10:02:03;6.30;;;3.55;;
23952;SDS011;12163;49.316;6.092;2023-05-07T10:04:31;6.30;;;3.80;;
23952;SDS011;12163;49.316;6.092;2023-05-07T10:06:58;8.98;;;3.58;;
23952;SDS011;12163;49.316;6.092;2023-05-07T10:09:25;7.13;;;3.47;;
23952;SDS011;12163;49.316;6.092;2023-05-07T10:11:52;6.85;;;3.55;;
23952;SDS011;12163;49.316;6.092;2023-05-07T10:14:20;8.55;;;3.35;;
23952;SDS011;12163;49.316;6.092;2023-05-07T10:16:48;7.70;;;3.50;;
23952;SDS011;12163;49.316;6.092;2023-05-07T10:19:15;4.90;;;3.20;;
23952;SDS011;12163;49.316;6.092;2023-05-07T10:21:44;7.22;;;3.08;;
23952;SDS011;12163;49.316;6.092;2023-05-07T10:24:21;7.38;;;3.80;;
23952;SDS011;12163;49.316;6.092;2023-05-07T10:26:55;4.60;;;3.25;;
23952;SDS011;12163;49.316;6.092;2023-05-07T10:34:43;5.38;;;3.17;;
23952;SDS011;12163;49.316;6.092;2023-05-07T10:37:13;5.72;;;3.38;;
23952;SDS011;12163;49.316;6.092;2023-05-07T10:39:40;6.75;;;3.40;;
23952;SDS011;12163;49.316;6.092;2023-05-07T10:42:08;5.30;;;3.17;;
23952;SDS011;12163;49.316;6.092;2023-05-07T10:44:36;6.75;;;2.92;;
23952;SDS011;12163;49.316;6.092;2023-05-07T10:47:13;4.88;;;3.15;;
23952;SDS011;12163;49.316;6.092;2023-05-07T10:52:21;8.88;;;3.17;;
23952;SDS011;12163;49.316;6.092;2023-05-07T10:55:23;5.07;;;3.10;;
23952;SDS011;12163;49.316;6.092;2023-05-07T10:57:43;7.70;;;3.00;;
23952;SDS011;12163;49.316;6.092;2023-05-07T11:05:27;8.32;;;3.90;;
23952;SDS011;12163;49.316;6.092;2023-05-07T11:08:00;8.57;;;5.18;;
23952;SDS011;12163;49.316;6.092;2023-05-07T11:13:16;5.00;;;3.05;;
23952;SDS011;12163;49.316;6.092;2023-05-07T11:15:47;6.68;;;3.20;;
23952;SDS011;12163;49.316;6.092;2023-05-07T11:18:15;6.80;;;3.05;;
23952;SDS011;12163;49.316;6.092;2023-05-07T11:26:04;7.43;;;3.05;;
23952;SDS011;12163;49.316;6.092;2023-05-07T11:28:39;7.72;;;3.33;;
23952;SDS011;12163;49.316;6.092;2023-05-07T11:31:08;7.53;;;3.45;;
23952;SDS011;12163;49.316;6.092;2023-05-07T11:33:35;8.82;;;3.40;;
23952;SDS011;12163;49.316;6.092;2023-05-07T11:36:04;7.32;;;3.35;;
23952;SDS011;12163;49.316;6.092;2023-05-07T11:38:34;6.93;;;3.10;;
23952;SDS011;12163;49.316;6.092;2023-05-07T11:41:05;8.50;;;3.55;;
23952;SDS011;12163;49.316;6.092;2023-05-07T11:43:32;4.82;;;3.33;;
23952;SDS011;12163;49.316;6.092;2023-05-07T11:46:08;13.88;;;3.35;;
23952;SDS011;12163;49.316;6.092;2023-05-07T11:48:36;6.35;;;3.40;;
23952;SDS011;12163;49.316;6.092;2023-05-07T11:51:04;10.50;;;3.40;;
23952;SDS011;12163;49.316;6.092;2023-05-07T11:53:38;9.95;;;3.15;;
23952;SDS011;12163;49.316;6.092;2023-05-07T11:56:09;6.38;;;3.42;;
23952;SDS011;12163;49.316;6.092;2023-05-07T11:58:37;4.90;;;3.20;;
23952;SDS011;12163;49.316;6.092;2023-05-07T12:01:06;7.78;;;3.38;;
23952;SDS011;12163;49.316;6.092;2023-05-07T12:03:34;5.28;;;2.63;;
23952;SDS011;12163;49.316;6.092;2023-05-07T12:06:02;8.32;;;3.72;;
23952;SDS011;12163;49.316;6.092;2023-05-07T12:08:32;9.65;;;3.10;;
23952;SDS011;12163;49.316;6.092;2023-05-07T12:10:59;9.35;;;3.10;;
23952;SDS011;12163;49.316;6.092;2023-05-07T12:13:25;5.57;;;3.20;;
23952;SDS011;12163;49.316;6.092;2023-05-07T12:15:53;6.50;;;2.83;;
23952;SDS011;12163;49.316;6.092;2023-05-07T12:18:21;5.22;;;3.03;;
23952;SDS011;12163;49.316;6.092;2023-05-07T12:20:49;7.93;;;3.25;;
23952;SDS011;12163;49.316;6.092;2023-05-07T12:23:16;9.27;;;3.05;;
23952;SDS011;12163;49.316;6.092;2023-05-07T12:25:43;10.27;;;3.10;;
23952;SDS011;12163;49.316;6.092;2023-05-07T12:28:14;10.00;;;3.30;;
23952;SDS011;12163;49.316;6.092;2023-05-07T12:30:45;6.33;;;3.20;;
23952;SDS011;12163;49.316;6.092;2023-05-07T12:33:17;10.38;;;3.38;;
23952;SDS011;12163;49.316;6.092;2023-05-07T12:35:45;9.98;;;3.40;;
23952;SDS011;12163;49.316;6.092;2023-05-07T12:38:15;9.52;;;3.40;;
23952;SDS011;12163;49.316;6.092;2023-05-07T12:40:47;10.52;;;4.00;;
23952;SDS011;12163;49.316;6.092;2023-05-07T12:43:18;11.20;;;3.28;;
23952;SDS011;12163;49.316;6.092;2023-05-07T12:45:49;7.43;;;3.50;;
23952;SDS011;12163;49.316;6.092;2023-05-07T12:48:16;10.75;;;3.70;;
23952;SDS011;12163;49.316;6.092;2023-05-07T12:50:43;12.63;;;4.20;;
23952;SDS011;12163;49.316;6.092;2023-05-07T12:53:10;7.72;;;3.78;;
23952;SDS011;12163;49.316;6.092;2023-05-07T12:55:42;7.20;;;3.40;;
23952;SDS011;12163;49.316;6.092;2023-05-07T12:58:20;11.25;;;4.30;;
23952;SDS011;12163;49.316;6.092;2023-05-07T13:00:49;11.05;;;4.45;;
23952;SDS011;12163;49.316;6.092;2023-05-07T13:03:20;11.57;;;4.90;;
23952;SDS011;12163;49.316;6.092;2023-05-07T13:05:52;9.43;;;4.35;;
23952;SDS011;12163;49.316;6.092;2023-05-07T13:08:34;14.55;;;4.10;;
23952;SDS011;12163;49.316;6.092;2023-05-07T13:11:07;7.80;;;3.58;;
23952;SDS011;12163;49.316;6.092;2023-05-07T13:13:35;10.57;;;3.45;;
23952;SDS011;12163;49.316;6.092;2023-05-07T13:16:03;8.30;;;3.30;;
23952;SDS011;12163;49.316;6.092;2023-05-07T13:18:32;4.70;;;2.80;;
23952;SDS011;12163;49.316;6.092;2023-05-07T13:21:00;7.53;;;2.75;;
23952;SDS011;12163;49.316;6.092;2023-05-07T13:23:27;7.43;;;3.00;;
23952;SDS011;12163;49.316;6.092;2023-05-07T13:25:54;5.15;;;3.20;;
23952;SDS011;12163;49.316;6.092;2023-05-07T13:28:22;3.97;;;2.15;;
23952;SDS011;12163;49.316;6.092;2023-05-07T13:30:50;4.65;;;2.50;;
23952;SDS011;12163;49.316;6.092;2023-05-07T13:33:18;5.07;;;2.20;;
23952;SDS011;12163;49.316;6.092;2023-05-07T13:35:44;3.80;;;2.10;;
23952;SDS011;12163;49.316;6.092;2023-05-07T13:38:11;5.20;;;2.10;;
23952;SDS011;12163;49.316;6.092;2023-05-07T13:40:38;5.97;;;2.47;;
23952;SDS011;12163;49.316;6.092;2023-05-07T13:43:05;3.60;;;2.25;;
23952;SDS011;12163;49.316;6.092;2023-05-07T13:45:32;4.80;;;2.30;;
23952;SDS011;12163;49.316;6.092;2023-05-07T13:47:58;5.80;;;2.15;;
23952;SDS011;12163;49.316;6.092;2023-05-07T13:50:25;4.13;;;2.17;;
23952;SDS011;12163;49.316;6.092;2023-05-07T13:52:56;4.82;;;2.28;;
23952;SDS011;12163;49.316;6.092;2023-05-07T13:55:23;5.82;;;2.35;;
23952;SDS011;12163;49.316;6.092;2023-05-07T13:57:58;4.20;;;1.98;;
23952;SDS011;12163;49.316;6.092;2023-05-07T14:00:26;5.72;;;2.50;;
23952;SDS011;12163;49.316;6.092;2023-05-07T14:02:54;3.22;;;2.17;;
23952;SDS011;12163;49.316;6.092;2023-05-07T14:05:21;3.63;;;1.95;;
23952;SDS011;12163;49.316;6.092;2023-05-07T14:07:51;4.22;;;2.25;;
23952;SDS011;12163;49.316;6.092;2023-05-07T14:10:18;5.28;;;2.08;;
23952;SDS011;12163;49.316;6.092;2023-05-07T14:12:45;5.57;;;2.40;;
23952;SDS011;12163;49.316;6.092;2023-05-07T14:15:13;4.65;;;2.20;;
23952;SDS011;12163;49.316;6.092;2023-05-07T14:17:40;3.40;;;2.00;;
23952;SDS011;12163;49.316;6.092;2023-05-07T14:20:06;3.80;;;2.22;;
23952;SDS011;12163;49.316;6.092;2023-05-07T14:22:34;6.40;;;2.30;;
23952;SDS011;12163;49.316;6.092;2023-05-07T14:25:01;4.72;;;2.33;;
23952;SDS011;12163;49.316;6.092;2023-05-07T14:27:32;6.03;;;2.30;;
23952;SDS011;12163;49.316;6.092;2023-05-07T14:29:59;4.30;;;2.33;;
23952;SDS011;12163;49.316;6.092;2023-05-07T14:32:25;5.28;;;2.28;;
23952;SDS011;12163;49.316;6.092;2023-05-07T14:34:52;4.60;;;2.38;;
23952;SDS011;12163;49.316;6.092;2023-05-07T14:37:18;3.88;;;2.28;;
23952;SDS011;12163;49.316;6.092;2023-05-07T14:39:46;3.53;;;2.00;;
23952;SDS011;12163;49.316;6.092;2023-05-07T14:42:15;4.95;;;2.10;;
23952;SDS011;12163;49.316;6.092;2023-05-07T14:44:41;5.38;;;2.10;;
23952;SDS011;12163;49.316;6.092;2023-05-07T14:47:08;5.30;;;2.20;;
23952;SDS011;12163;49.316;6.092;2023-05-07T14:49:35;3.63;;;2.22;;
23952;SDS011;12163;49.316;6.092;2023-05-07T14:52:01;5.82;;;2.17;;
23952;SDS011;12163;49.316;6.092;2023-05-07T14:54:28;4.15;;;2.00;;
23952;SDS011;12163;49.316;6.092;2023-05-07T14:56:55;15.55;;;2.17;;
23952;SDS011;12163;49.316;6.092;2023-05-07T14:59:22;7.13;;;2.17;;
23952;SDS011;12163;49.316;6.092;2023-05-07T15:01:51;4.72;;;2.00;;
23952;SDS011;12163;49.316;6.092;2023-05-07T15:04:18;4.70;;;2.20;;
23952;SDS011;12163;49.316;6.092;2023-05-07T15:06:45;8.15;;;2.50;;
23952;SDS011;12163;49.316;6.092;2023-05-07T15:09:12;3.40;;;2.10;;
23952;SDS011;12163;49.316;6.092;2023-05-07T15:11:39;4.63;;;1.83;;